createdAt,value
2018-04-28T00:00:16.905Z,947.57
2018-04-28T00:01:16.902Z,947.55
2018-04-28T00:02:16.868Z,947.55
2018-04-28T00:03:16.861Z,947.53
2018-04-28T00:04:16.855Z,947.53
2018-04-28T00:05:16.843Z,947.61
2018-04-28T00:06:16.835Z,947.61
2018-04-28T00:07:16.826Z,947.62
2018-04-28T00:08:16.817Z,947.63
2018-04-28T00:09:16.809Z,947.59
2018-04-28T00:10:16.801Z,947.59
2018-04-28T00:11:16.791Z,947.61
2018-04-28T00:12:16.782Z,947.63
2018-04-28T00:13:16.772Z,947.6
2018-04-28T00:14:16.765Z,947.59
2018-04-28T00:15:16.756Z,947.61
2018-04-28T00:16:16.746Z,947.6
2018-04-28T00:17:16.742Z,947.61
2018-04-28T00:18:16.794Z,947.57
2018-04-28T00:19:16.721Z,947.62
2018-04-28T00:20:16.711Z,947.61
2018-04-28T00:21:16.700Z,947.66
2018-04-28T00:22:16.692Z,947.67
2018-04-28T00:23:16.683Z,947.68
2018-04-28T00:24:16.677Z,947.7
2018-04-28T00:25:16.675Z,947.69
2018-04-28T00:26:16.656Z,947.71
2018-04-28T00:27:16.650Z,947.77
2018-04-28T00:28:16.641Z,947.73
2018-04-28T00:29:16.629Z,947.67
2018-04-28T00:30:16.622Z,947.72
2018-04-28T00:31:16.613Z,947.68
2018-04-28T00:32:16.603Z,947.74
2018-04-28T00:33:16.597Z,947.78
2018-04-28T00:34:16.586Z,947.77
2018-04-28T00:35:16.577Z,947.79
2018-04-28T00:36:16.577Z,947.84
2018-04-28T00:37:16.560Z,947.82
2018-04-28T00:38:16.550Z,947.85
2018-04-28T00:39:16.544Z,947.81
2018-04-28T00:40:16.531Z,947.87
2018-04-28T00:41:16.523Z,947.83
2018-04-28T00:42:16.514Z,947.87
2018-04-28T00:43:16.504Z,947.9
2018-04-28T00:44:16.500Z,947.84
2018-04-28T00:45:16.487Z,947.86
2018-04-28T00:46:16.477Z,947.86
2018-04-28T00:47:16.469Z,947.99
2018-04-28T00:48:16.458Z,947.91
2018-04-28T00:49:16.452Z,947.89
2018-04-28T00:50:16.441Z,947.9
2018-04-28T00:51:16.488Z,947.97
2018-04-28T00:52:16.430Z,947.98
2018-04-28T00:53:16.416Z,947.98
2018-04-28T00:54:16.406Z,947.93
2018-04-28T00:55:16.399Z,947.95
2018-04-28T00:56:16.391Z,947.96
2018-04-28T00:57:16.381Z,947.98
2018-04-28T00:58:16.376Z,947.99
2018-04-28T00:59:16.366Z,947.98
2018-04-28T01:00:16.356Z,948
2018-04-28T01:01:16.348Z,948.01
2018-04-28T01:02:16.339Z,947.97
2018-04-28T01:03:16.331Z,948.01
2018-04-28T01:04:16.322Z,947.94
2018-04-28T01:05:16.315Z,948.01
2018-04-28T01:06:16.306Z,948.01
2018-04-28T01:07:16.301Z,948.02
2018-04-28T01:08:16.288Z,948.06
2018-04-28T01:09:16.281Z,948.05
2018-04-28T01:10:16.272Z,948.09
2018-04-28T01:11:16.266Z,948.11
2018-04-28T01:12:16.256Z,948.05
2018-04-28T01:13:16.248Z,948.13
2018-04-28T01:14:16.241Z,948.11
2018-04-28T01:15:16.231Z,948.1
2018-04-28T01:16:16.230Z,948.13
2018-04-28T01:17:16.217Z,948.17
2018-04-28T01:18:16.207Z,948.1
2018-04-28T01:19:16.197Z,948.16
2018-04-28T01:20:16.199Z,948.17
2018-04-28T01:21:16.186Z,948.16
2018-04-28T01:22:16.175Z,948.2
2018-04-28T01:23:16.166Z,948.22
2018-04-28T01:24:16.157Z,948.21
2018-04-28T01:25:16.171Z,948.2
2018-04-28T01:26:16.144Z,948.16
2018-04-28T01:27:16.133Z,948.21
2018-04-28T01:28:16.128Z,948.15
2018-04-28T01:29:16.120Z,948.19
2018-04-28T01:30:16.110Z,948.22
2018-04-28T01:31:16.105Z,948.26
2018-04-28T01:32:16.093Z,948.26
2018-04-28T01:33:16.086Z,948.18
2018-04-28T01:34:16.079Z,948.21
2018-04-28T01:35:16.074Z,948.21
2018-04-28T01:36:16.065Z,948.21
2018-04-28T01:37:16.050Z,948.19
2018-04-28T01:38:16.044Z,948.29
2018-04-28T01:39:16.039Z,948.24
2018-04-28T01:40:16.027Z,948.25
2018-04-28T01:41:16.020Z,948.2
2018-04-28T01:42:16.027Z,948.26
2018-04-28T01:43:16.001Z,948.29
2018-04-28T01:44:15.996Z,948.17
2018-04-28T01:45:15.987Z,948.26
2018-04-28T01:46:15.979Z,948.26
2018-04-28T01:47:15.970Z,948.22
2018-04-28T01:48:15.959Z,948.24
2018-04-28T01:49:15.951Z,948.27
2018-04-28T01:50:15.963Z,948.31
2018-04-28T01:51:15.937Z,948.35
2018-04-28T01:52:15.925Z,948.34
2018-04-28T01:53:15.918Z,948.33
2018-04-28T01:54:15.909Z,948.31
2018-04-28T01:55:15.901Z,948.29
2018-04-28T01:56:15.894Z,948.37
2018-04-28T01:57:15.884Z,948.36
2018-04-28T01:58:15.877Z,948.31
2018-04-28T01:59:15.871Z,948.34
2018-04-28T02:00:15.860Z,948.38
2018-04-28T02:01:15.851Z,948.38
2018-04-28T02:02:15.843Z,948.44
2018-04-28T02:03:15.833Z,948.42
2018-04-28T02:04:15.825Z,948.39
2018-04-28T02:05:15.816Z,948.39
2018-04-28T02:06:15.809Z,948.44
2018-04-28T02:07:15.800Z,948.44
2018-04-28T02:08:15.790Z,948.45
2018-04-28T02:09:15.784Z,948.42
2018-04-28T02:10:15.776Z,948.46
2018-04-28T02:11:15.765Z,948.44
2018-04-28T02:12:15.758Z,948.46
2018-04-28T02:13:15.752Z,948.51
2018-04-28T02:14:15.738Z,948.48
2018-04-28T02:15:15.730Z,948.45
2018-04-28T02:16:15.723Z,948.47
2018-04-28T02:17:15.715Z,948.46
2018-04-28T02:18:15.707Z,948.48
2018-04-28T02:19:15.697Z,948.5
2018-04-28T02:20:15.686Z,948.5
2018-04-28T02:21:15.678Z,948.49
2018-04-28T02:22:15.670Z,948.5
2018-04-28T02:23:15.663Z,948.49
2018-04-28T02:24:15.654Z,948.52
2018-04-28T02:25:15.645Z,948.47
2018-04-28T02:26:15.636Z,948.55
2018-04-28T02:27:15.627Z,948.58
2018-04-28T02:28:15.617Z,948.56
2018-04-28T02:29:15.609Z,948.56
2018-04-28T02:30:15.600Z,948.61
2018-04-28T02:31:15.591Z,948.63
2018-04-28T02:32:15.585Z,948.62
2018-04-28T02:33:15.575Z,948.65
2018-04-28T02:34:15.565Z,948.67
2018-04-28T02:35:15.557Z,948.64
2018-04-28T02:36:15.552Z,948.7
2018-04-28T02:37:15.539Z,948.73
2018-04-28T02:38:15.530Z,948.64
2018-04-28T02:39:15.534Z,948.68
2018-04-28T02:40:15.512Z,948.77
2018-04-28T02:41:15.505Z,948.82
2018-04-28T02:42:15.494Z,948.75
2018-04-28T02:43:15.486Z,948.73
2018-04-28T02:44:15.479Z,948.73
2018-04-28T02:45:15.467Z,948.71
2018-04-28T02:46:15.461Z,948.76
2018-04-28T02:47:15.451Z,948.71
2018-04-28T02:48:15.441Z,948.8
2018-04-28T02:49:15.435Z,948.85
2018-04-28T02:50:15.431Z,948.86
2018-04-28T02:51:15.415Z,948.87
2018-04-28T02:52:15.412Z,948.84
2018-04-28T02:53:15.397Z,948.85
2018-04-28T02:54:15.388Z,948.81
2018-04-28T02:55:15.382Z,948.87
2018-04-28T02:56:15.387Z,948.88
2018-04-28T02:57:15.363Z,948.9
2018-04-28T02:58:15.353Z,948.94
2018-04-28T02:59:15.345Z,948.93
2018-04-28T03:00:15.336Z,948.97
2018-04-28T03:01:15.327Z,948.98
2018-04-28T03:02:15.319Z,948.95
2018-04-28T03:03:15.311Z,948.97
2018-04-28T03:04:15.300Z,949.01
2018-04-28T03:05:15.359Z,948.97
2018-04-28T03:06:15.282Z,948.99
2018-04-28T03:07:15.276Z,948.97
2018-04-28T03:08:15.265Z,949
2018-04-28T03:09:15.258Z,949.03
2018-04-28T03:10:15.250Z,949.01
2018-04-28T03:11:15.248Z,949.06
2018-04-28T03:12:15.240Z,949.07
2018-04-28T03:13:15.220Z,949.02
2018-04-28T03:14:15.212Z,949.02
2018-04-28T03:15:15.204Z,949.03
2018-04-28T03:16:15.192Z,949
2018-04-28T03:17:15.192Z,949.06
2018-04-28T03:18:15.175Z,949.04
2018-04-28T03:19:15.166Z,949.05
2018-04-28T03:20:15.157Z,949.09
2018-04-28T03:21:15.148Z,949.06
2018-04-28T03:22:15.141Z,949.1
2018-04-28T03:23:15.130Z,949.16
2018-04-28T03:24:15.139Z,949.12
2018-04-28T03:25:15.112Z,949.16
2018-04-28T03:26:15.103Z,949.18
2018-04-28T03:27:15.099Z,949.16
2018-04-28T03:28:15.085Z,949.17
2018-04-28T03:29:15.077Z,949.17
2018-04-28T03:30:15.068Z,949.15
2018-04-28T03:31:15.057Z,949.22
2018-04-28T03:32:15.050Z,949.25
2018-04-28T03:33:15.043Z,949.28
2018-04-28T03:34:15.032Z,949.26
2018-04-28T03:35:15.022Z,949.31
2018-04-28T03:36:15.014Z,949.33
2018-04-28T03:37:15.004Z,949.35
2018-04-28T03:38:14.994Z,949.31
2018-04-28T03:39:14.986Z,949.41
2018-04-28T03:40:14.977Z,949.42
2018-04-28T03:41:14.971Z,949.42
2018-04-28T03:42:14.957Z,949.42
2018-04-28T03:43:15.168Z,949.44
2018-04-28T03:44:14.939Z,949.46
2018-04-28T03:45:14.929Z,949.38
2018-04-28T03:46:14.919Z,949.43
2018-04-28T03:47:14.911Z,949.46
2018-04-28T03:48:14.903Z,949.52
2018-04-28T03:49:14.894Z,949.54
2018-04-28T03:50:14.883Z,949.56
2018-04-28T03:51:14.875Z,949.61
2018-04-28T03:52:14.867Z,949.57
2018-04-28T03:53:14.862Z,949.66
2018-04-28T03:54:14.848Z,949.6
2018-04-28T03:55:14.837Z,949.64
2018-04-28T03:56:14.827Z,949.6
2018-04-28T03:57:14.820Z,949.55
2018-04-28T03:58:14.809Z,949.55
2018-04-28T03:59:14.801Z,949.55
2018-04-28T04:00:14.790Z,949.59
2018-04-28T04:01:14.782Z,949.6
2018-04-28T04:02:14.772Z,949.62
2018-04-28T04:03:14.762Z,949.63
2018-04-28T04:04:14.755Z,949.64
2018-04-28T04:05:14.744Z,949.62
2018-04-28T04:06:14.741Z,949.69
2018-04-28T04:07:14.724Z,949.73
2018-04-28T04:08:14.717Z,949.75
2018-04-28T04:09:14.706Z,949.73
2018-04-28T04:10:14.703Z,949.78
2018-04-28T04:11:14.688Z,949.75
2018-04-28T04:12:14.678Z,949.75
2018-04-28T04:13:14.668Z,949.78
2018-04-28T04:14:14.715Z,949.76
2018-04-28T04:15:14.651Z,949.77
2018-04-28T04:16:14.640Z,949.77
2018-04-28T04:17:14.632Z,949.77
2018-04-28T04:18:14.704Z,949.77
2018-04-28T04:19:14.612Z,949.79
2018-04-28T04:20:14.614Z,949.77
2018-04-28T04:21:14.594Z,949.84
2018-04-28T04:22:14.586Z,949.84
2018-04-28T04:23:14.577Z,949.87
2018-04-28T04:24:14.567Z,949.89
2018-04-28T04:25:14.558Z,949.93
2018-04-28T04:26:14.548Z,949.92
2018-04-28T04:27:14.544Z,949.92
2018-04-28T04:28:14.531Z,949.95
2018-04-28T04:29:14.520Z,949.95
2018-04-28T04:30:14.519Z,950.03
2018-04-28T04:31:14.521Z,950.01
2018-04-28T04:32:14.492Z,950.04
2018-04-28T04:33:14.481Z,950.02
2018-04-28T04:34:14.474Z,950.03
2018-04-28T04:35:14.463Z,950
2018-04-28T04:36:14.456Z,950.01
2018-04-28T04:37:14.446Z,950.03
2018-04-28T04:38:14.440Z,950.06
2018-04-28T04:39:14.429Z,950.06
2018-04-28T04:40:14.419Z,950.07
2018-04-28T04:41:14.410Z,950.03
2018-04-28T04:42:14.403Z,950.1
2018-04-28T04:43:14.393Z,950.09
2018-04-28T04:44:14.384Z,950.1
2018-04-28T04:45:14.373Z,950.13
2018-04-28T04:46:14.365Z,950.15
2018-04-28T04:47:14.354Z,950.17
2018-04-28T04:48:14.350Z,950.18
2018-04-28T04:49:14.337Z,950.16
2018-04-28T04:50:14.330Z,950.21
2018-04-28T04:51:14.319Z,950.21
2018-04-28T04:52:14.311Z,950.27
2018-04-28T04:53:14.302Z,950.22
2018-04-28T04:54:14.293Z,950.27
2018-04-28T04:55:14.283Z,950.3
2018-04-28T04:56:14.274Z,950.36
2018-04-28T04:57:14.270Z,950.34
2018-04-28T04:58:14.257Z,950.35
2018-04-28T04:59:14.251Z,950.35
2018-04-28T05:00:14.239Z,950.36
2018-04-28T05:01:14.454Z,950.4
2018-04-28T05:02:14.222Z,950.48
2018-04-28T05:03:14.211Z,950.43
2018-04-28T05:04:14.204Z,950.48
2018-04-28T05:05:14.194Z,950.5
2018-04-28T05:06:14.186Z,950.51
2018-04-28T05:07:14.178Z,950.52
2018-04-28T05:08:14.167Z,950.53
2018-04-28T05:09:14.158Z,950.53
2018-04-28T05:10:14.149Z,950.57
2018-04-28T05:11:14.142Z,950.62
2018-04-28T05:12:14.133Z,950.65
2018-04-28T05:13:14.125Z,950.71
2018-04-28T05:14:14.115Z,950.67
2018-04-28T05:15:14.107Z,950.71
2018-04-28T05:16:14.099Z,950.74
2018-04-28T05:17:14.090Z,950.72
2018-04-28T05:18:14.082Z,950.77
2018-04-28T05:19:14.081Z,950.73
2018-04-28T05:20:14.064Z,950.76
2018-04-28T05:21:14.056Z,950.78
2018-04-28T05:22:14.046Z,950.77
2018-04-28T05:23:14.039Z,950.79
2018-04-28T05:24:14.030Z,950.78
2018-04-28T05:25:14.026Z,950.8
2018-04-28T05:26:14.015Z,950.77
2018-04-28T05:27:14.007Z,950.82
2018-04-28T05:28:14.001Z,950.9
2018-04-28T05:29:14.004Z,950.93
2018-04-28T05:30:13.979Z,950.91
2018-04-28T05:31:13.971Z,950.93
2018-04-28T05:32:13.962Z,950.92
2018-04-28T05:33:13.955Z,950.87
2018-04-28T05:34:13.964Z,950.9
2018-04-28T05:35:13.937Z,950.93
2018-04-28T05:36:13.929Z,950.91
2018-04-28T05:37:13.922Z,950.95
2018-04-28T05:38:13.916Z,950.96
2018-04-28T05:39:13.905Z,950.9
2018-04-28T05:40:13.898Z,950.92
2018-04-28T05:41:13.891Z,950.99
2018-04-28T05:42:13.880Z,950.93
2018-04-28T05:43:13.872Z,951
2018-04-28T05:44:13.865Z,951
2018-04-28T05:45:13.858Z,950.97
2018-04-28T05:46:13.848Z,950.97
2018-04-28T05:47:13.839Z,951.02
2018-04-28T05:48:13.833Z,951
2018-04-28T05:49:13.824Z,951.03
2018-04-28T05:50:13.817Z,951
2018-04-28T05:51:13.807Z,950.99
2018-04-28T05:52:13.801Z,951.04
2018-04-28T05:53:13.794Z,951.05
2018-04-28T05:54:13.784Z,951.05
2018-04-28T05:55:13.779Z,951.08
2018-04-28T05:56:13.768Z,951.08
2018-04-28T05:57:13.760Z,951.13
2018-04-28T05:58:13.755Z,951.11
2018-04-28T05:59:13.745Z,951.15
2018-04-28T06:00:13.738Z,951.16
2018-04-28T06:01:13.729Z,951.16
2018-04-28T06:02:13.722Z,951.17
2018-04-28T06:03:13.720Z,951.16
2018-04-28T06:04:13.705Z,951.14
2018-04-28T06:05:13.703Z,951.14
2018-04-28T06:06:13.691Z,951.14
2018-04-28T06:07:13.684Z,951.2
2018-04-28T06:08:13.675Z,951.15
2018-04-28T06:09:13.669Z,951.16
2018-04-28T06:10:13.660Z,951.22
2018-04-28T06:11:13.653Z,951.2
2018-04-28T06:12:13.645Z,951.23
2018-04-28T06:13:13.639Z,951.21
2018-04-28T06:14:13.691Z,951.29
2018-04-28T06:15:13.621Z,951.24
2018-04-28T06:16:13.614Z,951.22
2018-04-28T06:17:13.608Z,951.26
2018-04-28T06:18:13.599Z,951.26
2018-04-28T06:19:13.592Z,951.25
2018-04-28T06:20:13.601Z,951.29
2018-04-28T06:21:13.578Z,951.29
2018-04-28T06:22:13.575Z,951.29
2018-04-28T06:23:13.561Z,951.29
2018-04-28T06:24:13.553Z,951.32
2018-04-28T06:25:13.547Z,951.28
2018-04-28T06:26:13.538Z,951.3
2018-04-28T06:27:13.536Z,951.25
2018-04-28T06:28:13.523Z,951.32
2018-04-28T06:29:13.518Z,951.31
2018-04-28T06:30:13.508Z,951.25
2018-04-28T06:31:13.503Z,951.25
2018-04-28T06:32:13.494Z,951.28
2018-04-28T06:33:13.487Z,951.28
2018-04-28T06:34:13.481Z,951.28
2018-04-28T06:35:13.472Z,951.32
2018-04-28T06:36:13.464Z,951.27
2018-04-28T06:37:13.458Z,951.29
2018-04-28T06:38:13.452Z,951.31
2018-04-28T06:39:13.462Z,951.3
2018-04-28T06:40:13.436Z,951.33
2018-04-28T06:41:13.504Z,951.33
2018-04-28T06:42:13.422Z,951.31
2018-04-28T06:43:13.415Z,951.34
2018-04-28T06:44:13.404Z,951.29
2018-04-28T06:45:13.399Z,951.38
2018-04-28T06:46:13.393Z,951.33
2018-04-28T06:47:13.385Z,951.33
2018-04-28T06:48:13.377Z,951.35
2018-04-28T06:49:13.373Z,951.35
2018-04-28T06:50:13.365Z,951.34
2018-04-28T06:51:13.359Z,951.29
2018-04-28T06:52:13.374Z,951.35
2018-04-28T06:53:13.346Z,951.33
2018-04-28T06:54:13.340Z,951.33
2018-04-28T06:55:13.336Z,951.33
2018-04-28T06:56:13.331Z,951.35
2018-04-28T06:57:13.324Z,951.44
2018-04-28T06:58:13.320Z,951.44
2018-04-28T06:59:13.314Z,951.47
2018-04-28T07:00:13.309Z,951.45
2018-04-28T07:01:13.307Z,951.47
2018-04-28T07:02:13.303Z,951.49
2018-04-28T07:03:13.298Z,951.44
2018-04-28T07:04:13.293Z,951.5
2018-04-28T07:05:13.290Z,951.49
2018-04-28T07:06:13.288Z,951.51
2018-04-28T07:07:13.282Z,951.59
2018-04-28T07:08:13.279Z,951.57
2018-04-28T07:09:13.278Z,951.61
2018-04-28T07:10:13.274Z,951.61
2018-04-28T07:11:13.272Z,951.62
2018-04-28T07:12:13.271Z,951.63
2018-04-28T07:13:13.270Z,951.66
2018-04-28T07:14:13.269Z,951.74
2018-04-28T07:15:13.265Z,951.74
2018-04-28T07:16:13.264Z,951.73
2018-04-28T07:17:13.261Z,951.72
2018-04-28T07:18:13.262Z,951.76
2018-04-28T07:19:13.259Z,951.72
2018-04-28T07:20:13.261Z,951.83
2018-04-28T07:21:13.257Z,951.93
2018-04-28T07:22:13.257Z,951.98
2018-04-28T07:23:13.255Z,951.93
2018-04-28T07:24:13.257Z,952.02
2018-04-28T07:25:13.257Z,952.15
2018-04-28T07:26:13.258Z,952.3
2018-04-28T07:27:13.255Z,952.24
2018-04-28T07:28:13.255Z,952.08
2018-04-28T07:29:13.271Z,952.39
2018-04-28T07:30:13.255Z,951.89
2018-04-28T07:31:13.274Z,951.69
2018-04-28T07:32:13.259Z,951.56
2018-04-28T07:33:13.255Z,951.59
2018-04-28T07:34:13.255Z,951.62
2018-04-28T07:35:13.336Z,951.68
2018-04-28T07:36:13.255Z,951.61
2018-04-28T07:37:13.255Z,951.57
2018-04-28T07:38:13.252Z,951.58
2018-04-28T07:39:13.251Z,951.56
2018-04-28T07:40:13.252Z,951.55
2018-04-28T07:41:13.253Z,951.54
2018-04-28T07:42:13.326Z,951.56
2018-04-28T07:43:13.249Z,951.53
2018-04-28T07:44:13.251Z,951.54
2018-04-28T07:45:13.250Z,951.57
2018-04-28T07:46:13.248Z,951.54
2018-04-28T07:47:13.248Z,951.54
2018-04-28T07:48:13.449Z,951.53
2018-04-28T07:49:13.247Z,951.53
2018-04-28T07:50:13.247Z,951.5
2018-04-28T07:51:13.243Z,951.59
2018-04-28T07:52:13.242Z,951.63
2018-04-28T07:53:13.241Z,951.56
2018-04-28T07:54:13.242Z,951.55
2018-04-28T07:55:13.238Z,951.51
2018-04-28T07:56:13.240Z,951.51
2018-04-28T07:57:13.234Z,951.51
2018-04-28T07:58:13.241Z,951.52
2018-04-28T07:59:13.230Z,951.52
2018-04-28T08:00:13.233Z,951.52
2018-04-28T08:01:13.226Z,951.5
2018-04-28T08:02:13.224Z,951.5
2018-04-28T08:03:13.221Z,951.49
2018-04-28T08:04:13.221Z,951.51
2018-04-28T08:05:13.218Z,951.47
2018-04-28T08:06:13.221Z,951.47
2018-04-28T08:07:13.216Z,951.41
2018-04-28T08:08:13.215Z,951.43
2018-04-28T08:09:13.210Z,951.44
2018-04-28T08:10:13.205Z,951.46
2018-04-28T08:11:13.210Z,951.42
2018-04-28T08:12:13.199Z,951.48
2018-04-28T08:13:13.196Z,951.47
2018-04-28T08:14:13.196Z,951.48
2018-04-28T08:15:13.233Z,951.45
2018-04-28T08:16:13.190Z,951.48
2018-04-28T08:17:13.186Z,951.53
2018-04-28T08:18:13.184Z,951.47
2018-04-28T08:19:13.181Z,951.47
2018-04-28T08:20:13.181Z,951.48
2018-04-28T08:21:13.178Z,951.47
2018-04-28T08:22:13.176Z,951.53
2018-04-28T08:23:13.169Z,951.51
2018-04-28T08:24:13.169Z,951.54
2018-04-28T08:25:13.164Z,951.51
2018-04-28T08:26:13.163Z,951.55
2018-04-28T08:27:13.157Z,951.56
2018-04-28T08:28:13.155Z,951.53
2018-04-28T08:29:13.152Z,951.59
2018-04-28T08:30:13.377Z,951.53
2018-04-28T08:31:13.145Z,951.51
2018-04-28T08:32:13.145Z,951.5
2018-04-28T08:33:13.140Z,951.53
2018-04-28T08:34:13.135Z,951.57
2018-04-28T08:35:13.133Z,951.56
2018-04-28T08:36:13.130Z,951.57
2018-04-28T08:37:13.153Z,951.54
2018-04-28T08:38:13.123Z,951.51
2018-04-28T08:39:13.138Z,951.44
2018-04-28T08:40:13.116Z,951.55
2018-04-28T08:41:13.112Z,951.55
2018-04-28T08:42:13.110Z,951.54
2018-04-28T08:43:13.122Z,951.54
2018-04-28T08:44:13.321Z,951.64
2018-04-28T08:45:13.099Z,951.59
2018-04-28T08:46:13.096Z,951.6
2018-04-28T08:47:13.093Z,951.57
2018-04-28T08:48:13.091Z,951.54
2018-04-28T08:49:13.086Z,951.61
2018-04-28T08:50:13.086Z,951.55
2018-04-28T08:51:13.281Z,951.54
2018-04-28T08:52:13.076Z,951.51
2018-04-28T08:53:13.073Z,951.53
2018-04-28T08:54:13.070Z,951.56
2018-04-28T08:55:13.072Z,951.5
2018-04-28T08:56:13.062Z,951.58
2018-04-28T08:57:13.059Z,951.53
2018-04-28T08:58:13.057Z,951.52
2018-04-28T08:59:13.054Z,951.52
2018-04-28T09:00:13.050Z,951.49
2018-04-28T09:01:13.046Z,951.49
2018-04-28T09:02:13.047Z,951.47
2018-04-28T09:03:13.040Z,951.51
2018-04-28T09:04:13.040Z,951.46
2018-04-28T09:05:13.037Z,951.51
2018-04-28T09:06:13.038Z,951.44
2018-04-28T09:07:13.027Z,951.52
2018-04-28T09:08:13.029Z,951.47
2018-04-28T09:09:13.021Z,951.47
2018-04-28T09:10:13.018Z,951.43
2018-04-28T09:11:13.016Z,951.45
2018-04-28T09:12:13.013Z,951.47
2018-04-28T09:13:13.011Z,951.5
2018-04-28T09:14:13.006Z,951.5
2018-04-28T09:15:13.004Z,951.44
2018-04-28T09:16:13.001Z,951.48
2018-04-28T09:17:12.998Z,951.45
2018-04-28T09:18:13.213Z,951.5
2018-04-28T09:19:12.991Z,951.53
2018-04-28T09:20:12.989Z,951.5
2018-04-28T09:21:12.988Z,951.46
2018-04-28T09:22:12.985Z,951.46
2018-04-28T09:23:12.984Z,951.48
2018-04-28T09:24:12.981Z,951.53
2018-04-28T09:25:12.975Z,951.53
2018-04-28T09:26:13.030Z,951.56
2018-04-28T09:27:12.970Z,951.55
2018-04-28T09:28:12.970Z,951.58
2018-04-28T09:29:12.964Z,951.58
2018-04-28T09:30:12.964Z,951.6
2018-04-28T09:31:12.959Z,951.51
2018-04-28T09:32:12.956Z,951.48
2018-04-28T09:33:12.953Z,951.48
2018-04-28T09:34:12.952Z,951.55
2018-04-28T09:35:12.949Z,951.52
2018-04-28T09:36:12.946Z,951.49
2018-04-28T09:37:12.960Z,951.56
2018-04-28T09:38:12.941Z,951.54
2018-04-28T09:39:12.939Z,951.61
2018-04-28T09:40:12.937Z,951.58
2018-04-28T09:41:12.935Z,951.57
2018-04-28T09:42:12.933Z,951.54
2018-04-28T09:43:12.930Z,951.5
2018-04-28T09:44:12.927Z,951.5
2018-04-28T09:45:12.925Z,951.5
2018-04-28T09:46:12.924Z,951.53
2018-04-28T09:47:12.921Z,951.47
2018-04-28T09:48:12.919Z,951.51
2018-04-28T09:49:12.919Z,951.49
2018-04-28T09:50:12.926Z,951.45
2018-04-28T09:51:12.914Z,951.47
2018-04-28T09:52:12.913Z,951.47
2018-04-28T09:53:12.911Z,951.46
2018-04-28T09:54:12.910Z,951.48
2018-04-28T09:55:12.911Z,951.45
2018-04-28T09:56:12.908Z,951.44
2018-04-28T09:57:12.909Z,951.52
2018-04-28T09:58:12.906Z,951.45
2018-04-28T09:59:12.906Z,951.5
2018-04-28T10:00:12.925Z,951.46
2018-04-28T10:01:12.906Z,951.49
2018-04-28T10:02:12.922Z,951.55
2018-04-28T10:03:12.905Z,951.55
2018-04-28T10:04:12.904Z,951.57
2018-04-28T10:05:12.903Z,951.52
2018-04-28T10:06:12.900Z,951.42
2018-04-28T10:07:12.901Z,951.46
2018-04-28T10:08:12.901Z,951.38
2018-04-28T10:09:12.898Z,951.47
2018-04-28T10:10:12.898Z,951.51
2018-04-28T10:11:12.899Z,951.48
2018-04-28T10:12:12.897Z,951.5
2018-04-28T10:13:12.896Z,951.47
2018-04-28T10:14:12.898Z,951.45
2018-04-28T10:15:12.894Z,951.48
2018-04-28T10:16:12.894Z,951.42
2018-04-28T10:17:12.894Z,951.4
2018-04-28T10:18:12.893Z,951.38
2018-04-28T10:19:12.891Z,951.38
2018-04-28T10:20:12.945Z,951.37
2018-04-28T10:21:12.889Z,951.34
2018-04-28T10:22:12.896Z,951.37
2018-04-28T10:23:12.889Z,951.34
2018-04-28T10:24:12.885Z,951.35
2018-04-28T10:25:12.886Z,951.29
2018-04-28T10:26:12.884Z,951.24
2018-04-28T10:27:12.883Z,951.32
2018-04-28T10:28:12.898Z,951.26
2018-04-28T10:29:12.881Z,951.23
2018-04-28T10:30:12.879Z,951.32
2018-04-28T10:31:12.888Z,951.27
2018-04-28T10:32:12.873Z,951.31
2018-04-28T10:33:12.872Z,951.32
2018-04-28T10:34:12.871Z,951.29
2018-04-28T10:35:12.870Z,951.28
2018-04-28T10:36:12.871Z,951.25
2018-04-28T10:37:12.867Z,951.22
2018-04-28T10:38:12.870Z,951.22
2018-04-28T10:39:12.864Z,951.27
2018-04-28T10:40:12.862Z,951.32
2018-04-28T10:41:12.866Z,951.31
2018-04-28T10:42:12.861Z,951.27
2018-04-28T10:43:12.864Z,951.26
2018-04-28T10:44:12.858Z,951.24
2018-04-28T10:45:12.860Z,951.16
2018-04-28T10:46:12.854Z,951.24
2018-04-28T10:47:12.854Z,951.23
2018-04-28T10:48:12.855Z,951.21
2018-04-28T10:49:12.851Z,951.21
2018-04-28T10:50:12.849Z,951.17
2018-04-28T10:51:12.848Z,951.09
2018-04-28T10:52:12.848Z,951.09
2018-04-28T10:53:12.845Z,951.05
2018-04-28T10:54:12.846Z,951.1
2018-04-28T10:55:12.844Z,951.1
2018-04-28T10:56:12.842Z,951.09
2018-04-28T10:57:12.843Z,951.12
2018-04-28T10:58:12.843Z,951.09
2018-04-28T10:59:12.840Z,951.04
2018-04-28T11:00:12.838Z,951.03
2018-04-28T11:01:12.839Z,951.06
2018-04-28T11:02:12.838Z,951.05
2018-04-28T11:03:12.857Z,951.01
2018-04-28T11:04:12.835Z,951.04
2018-04-28T11:05:12.833Z,951.04
2018-04-28T11:06:12.882Z,951.04
2018-04-28T11:07:12.832Z,951.04
2018-04-28T11:08:12.831Z,951.02
2018-04-28T11:09:12.830Z,950.97
2018-04-28T11:10:12.828Z,950.93
2018-04-28T11:11:12.828Z,950.95
2018-04-28T11:12:12.826Z,950.95
2018-04-28T11:13:12.835Z,950.95
2018-04-28T11:14:12.826Z,950.95
2018-04-28T11:15:12.822Z,950.89
2018-04-28T11:16:12.821Z,950.92
2018-04-28T11:17:12.826Z,950.91
2018-04-28T11:18:12.825Z,950.96
2018-04-28T11:19:12.819Z,950.93
2018-04-28T11:20:12.817Z,950.91
2018-04-28T11:21:12.815Z,950.93
2018-04-28T11:22:12.819Z,950.99
2018-04-28T11:23:12.812Z,950.98
2018-04-28T11:24:12.811Z,950.97
2018-04-28T11:25:12.810Z,950.96
2018-04-28T11:26:12.808Z,950.98
2018-04-28T11:27:12.819Z,950.96
2018-04-28T11:28:12.807Z,950.86
2018-04-28T11:29:12.805Z,950.85
2018-04-28T11:30:12.806Z,950.84
2018-04-28T11:31:12.806Z,950.82
2018-04-28T11:32:12.803Z,950.88
2018-04-28T11:33:12.802Z,950.93
2018-04-28T11:34:12.801Z,950.9
2018-04-28T11:35:12.799Z,950.9
2018-04-28T11:36:12.800Z,950.92
2018-04-28T11:37:12.797Z,950.82
2018-04-28T11:38:12.880Z,950.82
2018-04-28T11:39:12.799Z,950.81
2018-04-28T11:40:12.795Z,950.82
2018-04-28T11:41:12.796Z,950.81
2018-04-28T11:42:12.797Z,950.82
2018-04-28T11:43:12.795Z,950.82
2018-04-28T11:44:12.793Z,950.83
2018-04-28T11:45:12.796Z,950.88
2018-04-28T11:46:12.793Z,950.9
2018-04-28T11:47:12.791Z,950.89
2018-04-28T11:48:12.791Z,950.87
2018-04-28T11:49:12.791Z,950.87
2018-04-28T11:50:12.791Z,950.82
2018-04-28T11:51:12.790Z,950.91
2018-04-28T11:52:12.791Z,950.87
2018-04-28T11:53:12.865Z,950.87
2018-04-28T11:54:12.787Z,950.86
2018-04-28T11:55:12.787Z,950.9
2018-04-28T11:56:12.785Z,950.91
2018-04-28T11:57:12.786Z,950.89
2018-04-28T11:58:12.785Z,950.91
2018-04-28T11:59:12.833Z,950.86
2018-04-28T12:00:12.784Z,950.84
2018-04-28T12:01:12.782Z,950.83
2018-04-28T12:02:12.781Z,950.83
2018-04-28T12:03:12.781Z,950.79
2018-04-28T12:04:12.782Z,950.85
2018-04-28T12:05:12.846Z,950.78
2018-04-28T12:06:12.783Z,950.77
2018-04-28T12:07:12.780Z,950.79
2018-04-28T12:08:12.781Z,950.8
2018-04-28T12:09:12.795Z,950.77
2018-04-28T12:10:12.778Z,950.75
2018-04-28T12:11:12.779Z,950.69
2018-04-28T12:12:12.777Z,950.74
2018-04-28T12:13:12.777Z,950.71
2018-04-28T12:14:12.778Z,950.7
2018-04-28T12:15:12.775Z,950.67
2018-04-28T12:16:12.776Z,950.68
2018-04-28T12:17:12.777Z,950.66
2018-04-28T12:18:12.773Z,950.67
2018-04-28T12:19:12.772Z,950.64
2018-04-28T12:20:12.773Z,950.66
2018-04-28T12:21:12.825Z,950.64
2018-04-28T12:22:12.772Z,950.63
2018-04-28T12:23:12.773Z,950.7
2018-04-28T12:24:12.771Z,950.63
2018-04-28T12:25:12.776Z,950.66
2018-04-28T12:26:12.771Z,950.64
2018-04-28T12:27:12.772Z,950.57
2018-04-28T12:28:12.772Z,950.64
2018-04-28T12:29:12.773Z,950.65
2018-04-28T12:30:12.772Z,950.63
2018-04-28T12:31:12.773Z,950.61